sensor_id;sensor_type;location;lat;lon;timestamp;P1;durP1;ratioP1;P2;durP2;ratioP2
3131;SDS011;62090;52.330;9.104;2024-02-14T00:01:35;4.53;;;2.20;;
3131;SDS011;62090;52.330;9.104;2024-02-14T00:04:05;4.00;;;2.00;;
3131;SDS011;62090;52.330;9.104;2024-02-14T00:06:37;6.10;;;2.20;;
3131;SDS011;62090;52.330;9.104;2024-02-14T00:09:07;7.17;;;2.77;;
3131;SDS011;62090;52.330;9.104;2024-02-14T00:11:38;6.37;;;2.67;;
3131;SDS011;62090;52.330;9.104;2024-02-14T00:14:08;5.90;;;2.60;;
3131;SDS011;62090;52.330;9.104;2024-02-14T00:16:41;3.30;;;1.93;;
3131;SDS011;62090;52.330;9.104;2024-02-14T00:19:11;4.13;;;1.93;;
3131;SDS011;62090;52.330;9.104;2024-02-14T00:21:41;5.27;;;2.43;;
3131;SDS011;62090;52.330;9.104;2024-02-14T00:24:12;2.73;;;2.20;;
3131;SDS011;62090;52.330;9.104;2024-02-14T00:26:42;7.23;;;2.60;;
3131;SDS011;62090;52.330;9.104;2024-02-14T00:29:13;6.13;;;2.67;;
3131;SDS011;62090;52.330;9.104;2024-02-14T00:31:45;4.70;;;2.97;;
3131;SDS011;62090;52.330;9.104;2024-02-14T00:34:20;4.03;;;2.40;;
3131;SDS011;62090;52.330;9.104;2024-02-14T00:36:51;4.30;;;2.33;;
3131;SDS011;62090;52.330;9.104;2024-02-14T00:39:21;7.70;;;2.43;;
3131;SDS011;62090;52.330;9.104;2024-02-14T00:41:51;5.93;;;2.00;;
3131;SDS011;62090;52.330;9.104;2024-02-14T00:44:22;14.33;;;2.43;;
3131;SDS011;62090;52.330;9.104;2024-02-14T00:46:57;4.00;;;1.87;;
3131;SDS011;62090;52.330;9.104;2024-02-14T00:49:29;5.73;;;2.00;;
3131;SDS011;62090;52.330;9.104;2024-02-14T00:51:59;6.17;;;2.20;;
3131;SDS011;62090;52.330;9.104;2024-02-14T00:54:29;7.67;;;2.40;;
3131;SDS011;62090;52.330;9.104;2024-02-14T00:56:59;5.50;;;2.40;;
3131;SDS011;62090;52.330;9.104;2024-02-14T00:59:30;5.87;;;2.60;;
3131;SDS011;62090;52.330;9.104;2024-02-14T01:02:02;8.97;;;2.10;;
3131;SDS011;62090;52.330;9.104;2024-02-14T01:04:33;4.10;;;2.10;;
3131;SDS011;62090;52.330;9.104;2024-02-14T01:07:04;7.20;;;2.60;;
3131;SDS011;62090;52.330;9.104;2024-02-14T01:09:35;7.00;;;3.00;;
3131;SDS011;62090;52.330;9.104;2024-02-14T01:12:05;4.63;;;1.97;;
3131;SDS011;62090;52.330;9.104;2024-02-14T01:14:36;7.80;;;2.10;;
3131;SDS011;62090;52.330;9.104;2024-02-14T01:17:09;4.43;;;2.07;;
3131;SDS011;62090;52.330;9.104;2024-02-14T01:19:39;5.40;;;2.57;;
3131;SDS011;62090;52.330;9.104;2024-02-14T01:22:10;4.03;;;2.17;;
3131;SDS011;62090;52.330;9.104;2024-02-14T01:25:03;5.13;;;2.33;;
3131;SDS011;62090;52.330;9.104;2024-02-14T01:27:34;7.63;;;2.87;;
3131;SDS011;62090;52.330;9.104;2024-02-14T01:30:04;5.83;;;2.67;;
3131;SDS011;62090;52.330;9.104;2024-02-14T01:32:39;10.60;;;3.17;;
3131;SDS011;62090;52.330;9.104;2024-02-14T01:35:09;3.30;;;2.23;;
3131;SDS011;62090;52.330;9.104;2024-02-14T01:37:40;3.90;;;2.70;;
3131;SDS011;62090;52.330;9.104;2024-02-14T01:40:12;6.57;;;3.40;;
3131;SDS011;62090;52.330;9.104;2024-02-14T01:42:52;4.10;;;2.30;;
3131;SDS011;62090;52.330;9.104;2024-02-14T01:45:22;8.90;;;2.23;;
3131;SDS011;62090;52.330;9.104;2024-02-14T01:48:01;6.80;;;2.40;;
3131;SDS011;62090;52.330;9.104;2024-02-14T01:50:33;6.73;;;2.90;;
3131;SDS011;62090;52.330;9.104;2024-02-14T01:53:07;6.40;;;2.13;;
3131;SDS011;62090;52.330;9.104;2024-02-14T01:55:38;5.70;;;2.30;;
3131;SDS011;62090;52.330;9.104;2024-02-14T01:58:08;5.63;;;2.70;;
3131;SDS011;62090;52.330;9.104;2024-02-14T02:00:38;6.43;;;2.20;;
3131;SDS011;62090;52.330;9.104;2024-02-14T02:03:14;6.93;;;2.63;;
3131;SDS011;62090;52.330;9.104;2024-02-14T02:05:44;10.13;;;2.70;;
3131;SDS011;62090;52.330;9.104;2024-02-14T02:08:15;3.90;;;2.67;;
3131;SDS011;62090;52.330;9.104;2024-02-14T02:10:45;5.37;;;2.20;;
3131;SDS011;62090;52.330;9.104;2024-02-14T02:13:36;9.20;;;2.40;;
3131;SDS011;62090;52.330;9.104;2024-02-14T02:16:26;6.20;;;2.60;;
3131;SDS011;62090;52.330;9.104;2024-02-14T02:19:30;4.80;;;2.40;;
3131;SDS011;62090;52.330;9.104;2024-02-14T02:22:23;5.30;;;2.17;;
3131;SDS011;62090;52.330;9.104;2024-02-14T02:25:17;5.60;;;2.37;;
3131;SDS011;62090;52.330;9.104;2024-02-14T02:28:03;8.63;;;2.27;;
3131;SDS011;62090;52.330;9.104;2024-02-14T02:30:38;3.50;;;2.30;;
3131;SDS011;62090;52.330;9.104;2024-02-14T02:33:08;3.23;;;1.90;;
3131;SDS011;62090;52.330;9.104;2024-02-14T02:35:41;12.47;;;2.30;;
3131;SDS011;62090;52.330;9.104;2024-02-14T02:38:32;7.90;;;2.20;;
3131;SDS011;62090;52.330;9.104;2024-02-14T02:41:26;4.10;;;2.50;;
3131;SDS011;62090;52.330;9.104;2024-02-14T02:44:14;6.17;;;2.60;;
3131;SDS011;62090;52.330;9.104;2024-02-14T02:47:03;4.20;;;1.90;;
3131;SDS011;62090;52.330;9.104;2024-02-14T02:49:53;3.00;;;2.10;;
3131;SDS011;62090;52.330;9.104;2024-02-14T02:52:43;7.60;;;2.70;;
3131;SDS011;62090;52.330;9.104;2024-02-14T02:55:33;4.83;;;3.00;;
3131;SDS011;62090;52.330;9.104;2024-02-14T02:58:07;9.13;;;3.17;;
3131;SDS011;62090;52.330;9.104;2024-02-14T03:00:37;5.03;;;2.60;;
3131;SDS011;62090;52.330;9.104;2024-02-14T03:03:20;3.63;;;2.50;;
3131;SDS011;62090;52.330;9.104;2024-02-14T03:06:07;4.63;;;2.23;;
3131;SDS011;62090;52.330;9.104;2024-02-14T03:08:59;4.50;;;2.90;;
3131;SDS011;62090;52.330;9.104;2024-02-14T03:11:49;5.60;;;2.67;;
3131;SDS011;62090;52.330;9.104;2024-02-14T03:14:42;4.83;;;2.77;;
3131;SDS011;62090;52.330;9.104;2024-02-14T03:17:32;9.70;;;3.50;;
3131;SDS011;62090;52.330;9.104;2024-02-14T03:20:03;4.60;;;2.70;;
3131;SDS011;62090;52.330;9.104;2024-02-14T03:22:43;6.20;;;2.80;;
3131;SDS011;62090;52.330;9.104;2024-02-14T03:25:16;5.77;;;3.33;;
3131;SDS011;62090;52.330;9.104;2024-02-14T03:27:57;11.40;;;2.83;;
3131;SDS011;62090;52.330;9.104;2024-02-14T03:30:30;7.83;;;3.17;;
3131;SDS011;62090;52.330;9.104;2024-02-14T03:33:00;8.43;;;3.43;;
3131;SDS011;62090;52.330;9.104;2024-02-14T03:35:31;16.83;;;4.00;;
3131;SDS011;62090;52.330;9.104;2024-02-14T03:38:01;5.90;;;2.70;;
3131;SDS011;62090;52.330;9.104;2024-02-14T03:40:35;7.33;;;3.67;;
3131;SDS011;62090;52.330;9.104;2024-02-14T03:43:05;5.33;;;2.70;;
3131;SDS011;62090;52.330;9.104;2024-02-14T03:45:41;12.47;;;3.67;;
3131;SDS011;62090;52.330;9.104;2024-02-14T03:48:11;7.93;;;2.80;;
3131;SDS011;62090;52.330;9.104;2024-02-14T03:50:42;6.00;;;3.10;;
3131;SDS011;62090;52.330;9.104;2024-02-14T03:53:12;7.03;;;3.40;;
3131;SDS011;62090;52.330;9.104;2024-02-14T03:55:42;5.70;;;3.30;;
3131;SDS011;62090;52.330;9.104;2024-02-14T03:58:12;10.23;;;3.23;;
3131;SDS011;62090;52.330;9.104;2024-02-14T04:00:46;3.40;;;2.80;;
3131;SDS011;62090;52.330;9.104;2024-02-14T04:03:17;10.10;;;3.27;;
3131;SDS011;62090;52.330;9.104;2024-02-14T04:05:48;7.67;;;3.10;;
3131;SDS011;62090;52.330;9.104;2024-02-14T04:08:18;7.47;;;3.40;;
3131;SDS011;62090;52.330;9.104;2024-02-14T04:10:48;9.23;;;3.57;;
3131;SDS011;62090;52.330;9.104;2024-02-14T04:13:20;4.87;;;2.70;;
3131;SDS011;62090;52.330;9.104;2024-02-14T04:15:54;5.27;;;3.10;;
3131;SDS011;62090;52.330;9.104;2024-02-14T04:18:26;5.40;;;3.13;;
3131;SDS011;62090;52.330;9.104;2024-02-14T04:20:56;4.87;;;2.97;;
3131;SDS011;62090;52.330;9.104;2024-02-14T04:23:26;5.43;;;3.40;;
3131;SDS011;62090;52.330;9.104;2024-02-14T04:25:56;6.50;;;3.30;;
3131;SDS011;62090;52.330;9.104;2024-02-14T04:28:26;10.03;;;3.53;;
3131;SDS011;62090;52.330;9.104;2024-02-14T04:30:59;13.17;;;3.67;;
3131;SDS011;62090;52.330;9.104;2024-02-14T04:33:34;11.07;;;3.10;;
3131;SDS011;62090;52.330;9.104;2024-02-14T04:36:04;7.73;;;3.43;;
3131;SDS011;62090;52.330;9.104;2024-02-14T04:38:35;7.27;;;3.40;;
3131;SDS011;62090;52.330;9.104;2024-02-14T04:41:05;7.00;;;3.27;;
3131;SDS011;62090;52.330;9.104;2024-02-14T04:43:37;13.03;;;3.53;;
3131;SDS011;62090;52.330;9.104;2024-02-14T04:46:09;9.87;;;3.70;;
3131;SDS011;62090;52.330;9.104;2024-02-14T04:48:39;6.20;;;3.90;;
3131;SDS011;62090;52.330;9.104;2024-02-14T04:51:10;6.10;;;3.37;;
3131;SDS011;62090;52.330;9.104;2024-02-14T04:53:40;6.70;;;3.37;;
3131;SDS011;62090;52.330;9.104;2024-02-14T04:56:10;6.73;;;4.00;;
3131;SDS011;62090;52.330;9.104;2024-02-14T04:58:40;7.83;;;4.23;;
3131;SDS011;62090;52.330;9.104;2024-02-14T05:01:10;5.00;;;3.43;;
3131;SDS011;62090;52.330;9.104;2024-02-14T05:03:41;4.90;;;3.33;;
3131;SDS011;62090;52.330;9.104;2024-02-14T05:06:11;6.07;;;3.07;;
3131;SDS011;62090;52.330;9.104;2024-02-14T05:08:41;4.50;;;3.37;;
3131;SDS011;62090;52.330;9.104;2024-02-14T05:11:11;9.77;;;3.57;;
3131;SDS011;62090;52.330;9.104;2024-02-14T05:13:42;6.30;;;3.30;;
3131;SDS011;62090;52.330;9.104;2024-02-14T05:16:13;6.60;;;3.47;;
3131;SDS011;62090;52.330;9.104;2024-02-14T05:18:43;9.90;;;4.10;;
3131;SDS011;62090;52.330;9.104;2024-02-14T05:21:13;7.43;;;4.20;;
3131;SDS011;62090;52.330;9.104;2024-02-14T05:23:43;7.70;;;3.57;;
3131;SDS011;62090;52.330;9.104;2024-02-14T05:26:14;6.50;;;3.33;;
3131;SDS011;62090;52.330;9.104;2024-02-14T05:28:44;8.73;;;3.80;;
3131;SDS011;62090;52.330;9.104;2024-02-14T05:31:17;7.07;;;3.63;;
3131;SDS011;62090;52.330;9.104;2024-02-14T05:33:47;5.67;;;3.83;;
3131;SDS011;62090;52.330;9.104;2024-02-14T05:36:17;8.00;;;4.20;;
3131;SDS011;62090;52.330;9.104;2024-02-14T05:38:48;10.17;;;5.07;;
3131;SDS011;62090;52.330;9.104;2024-02-14T05:41:19;13.17;;;6.43;;
3131;SDS011;62090;52.330;9.104;2024-02-14T05:43:50;7.80;;;3.90;;
3131;SDS011;62090;52.330;9.104;2024-02-14T05:46:23;5.40;;;4.23;;
3131;SDS011;62090;52.330;9.104;2024-02-14T05:48:54;5.97;;;3.67;;
3131;SDS011;62090;52.330;9.104;2024-02-14T05:51:25;5.50;;;3.17;;
3131;SDS011;62090;52.330;9.104;2024-02-14T05:53:55;7.57;;;3.57;;
3131;SDS011;62090;52.330;9.104;2024-02-14T05:56:26;5.80;;;3.07;;
3131;SDS011;62090;52.330;9.104;2024-02-14T05:58:56;11.83;;;3.53;;
3131;SDS011;62090;52.330;9.104;2024-02-14T06:01:28;6.20;;;3.77;;
3131;SDS011;62090;52.330;9.104;2024-02-14T06:03:59;3.53;;;2.80;;
3131;SDS011;62090;52.330;9.104;2024-02-14T06:06:29;8.20;;;3.77;;
3131;SDS011;62090;52.330;9.104;2024-02-14T06:08:59;8.70;;;3.70;;
3131;SDS011;62090;52.330;9.104;2024-02-14T06:11:36;6.13;;;3.63;;
3131;SDS011;62090;52.330;9.104;2024-02-14T06:14:06;5.23;;;4.07;;
3131;SDS011;62090;52.330;9.104;2024-02-14T06:16:40;5.43;;;3.77;;
3131;SDS011;62090;52.330;9.104;2024-02-14T06:19:10;6.30;;;3.50;;
3131;SDS011;62090;52.330;9.104;2024-02-14T06:21:41;8.17;;;3.70;;
3131;SDS011;62090;52.330;9.104;2024-02-14T06:24:11;9.30;;;3.83;;
3131;SDS011;62090;52.330;9.104;2024-02-14T06:26:41;4.50;;;3.00;;
3131;SDS011;62090;52.330;9.104;2024-02-14T06:29:11;4.27;;;3.20;;
3131;SDS011;62090;52.330;9.104;2024-02-14T06:31:44;6.33;;;3.57;;
3131;SDS011;62090;52.330;9.104;2024-02-14T06:34:14;5.60;;;3.90;;
3131;SDS011;62090;52.330;9.104;2024-02-14T06:36:46;6.67;;;4.13;;
3131;SDS011;62090;52.330;9.104;2024-02-14T06:39:17;9.17;;;3.63;;
3131;SDS011;62090;52.330;9.104;2024-02-14T06:41:47;4.77;;;3.30;;
3131;SDS011;62090;52.330;9.104;2024-02-14T06:44:17;4.00;;;3.20;;
3131;SDS011;62090;52.330;9.104;2024-02-14T06:46:50;3.97;;;2.60;;
3131;SDS011;62090;52.330;9.104;2024-02-14T06:49:20;3.17;;;2.40;;
3131;SDS011;62090;52.330;9.104;2024-02-14T06:51:50;3.33;;;2.50;;
3131;SDS011;62090;52.330;9.104;2024-02-14T06:54:20;3.60;;;2.93;;
3131;SDS011;62090;52.330;9.104;2024-02-14T06:56:50;4.27;;;3.10;;
3131;SDS011;62090;52.330;9.104;2024-02-14T06:59:21;5.93;;;2.80;;
3131;SDS011;62090;52.330;9.104;2024-02-14T07:01:53;4.40;;;3.10;;
3131;SDS011;62090;52.330;9.104;2024-02-14T07:04:39;4.00;;;2.90;;
3131;SDS011;62090;52.330;9.104;2024-02-14T07:07:09;3.63;;;2.80;;
3131;SDS011;62090;52.330;9.104;2024-02-14T07:09:39;5.37;;;2.37;;
3131;SDS011;62090;52.330;9.104;2024-02-14T07:12:09;5.93;;;3.37;;
3131;SDS011;62090;52.330;9.104;2024-02-14T07:14:40;4.40;;;3.10;;
3131;SDS011;62090;52.330;9.104;2024-02-14T07:17:13;3.73;;;2.80;;
3131;SDS011;62090;52.330;9.104;2024-02-14T07:19:43;3.27;;;2.60;;
3131;SDS011;62090;52.330;9.104;2024-02-14T07:22:16;6.40;;;2.90;;
3131;SDS011;62090;52.330;9.104;2024-02-14T07:24:47;5.10;;;3.00;;
3131;SDS011;62090;52.330;9.104;2024-02-14T07:27:17;3.93;;;3.13;;
3131;SDS011;62090;52.330;9.104;2024-02-14T07:29:48;5.70;;;3.00;;
3131;SDS011;62090;52.330;9.104;2024-02-14T07:32:21;3.40;;;3.10;;
3131;SDS011;62090;52.330;9.104;2024-02-14T07:34:51;4.80;;;3.17;;
3131;SDS011;62090;52.330;9.104;2024-02-14T07:37:21;4.57;;;3.23;;
3131;SDS011;62090;52.330;9.104;2024-02-14T07:39:51;4.20;;;3.27;;
3131;SDS011;62090;52.330;9.104;2024-02-14T07:42:22;4.00;;;3.60;;
3131;SDS011;62090;52.330;9.104;2024-02-14T07:44:52;3.97;;;3.57;;
3131;SDS011;62090;52.330;9.104;2024-02-14T07:47:26;4.27;;;3.30;;
3131;SDS011;62090;52.330;9.104;2024-02-14T07:49:56;3.23;;;2.93;;
3131;SDS011;62090;52.330;9.104;2024-02-14T07:52:27;4.00;;;3.07;;
3131;SDS011;62090;52.330;9.104;2024-02-14T07:55:01;4.00;;;3.60;;
3131;SDS011;62090;52.330;9.104;2024-02-14T07:57:31;6.60;;;3.63;;
3131;SDS011;62090;52.330;9.104;2024-02-14T08:00:01;4.30;;;3.57;;
3131;SDS011;62090;52.330;9.104;2024-02-14T08:02:35;5.77;;;4.00;;
3131;SDS011;62090;52.330;9.104;2024-02-14T08:05:06;4.70;;;4.07;;
3131;SDS011;62090;52.330;9.104;2024-02-14T08:07:36;5.43;;;4.37;;
3131;SDS011;62090;52.330;9.104;2024-02-14T08:10:06;8.30;;;5.73;;
3131;SDS011;62090;52.330;9.104;2024-02-14T08:12:37;7.10;;;4.97;;
3131;SDS011;62090;52.330;9.104;2024-02-14T08:15:07;6.50;;;5.73;;
3131;SDS011;62090;52.330;9.104;2024-02-14T08:17:41;10.10;;;6.80;;
3131;SDS011;62090;52.330;9.104;2024-02-14T08:20:13;8.43;;;7.47;;
3131;SDS011;62090;52.330;9.104;2024-02-14T08:22:55;11.10;;;8.80;;
3131;SDS011;62090;52.330;9.104;2024-02-14T08:25:25;13.40;;;10.00;;
3131;SDS011;62090;52.330;9.104;2024-02-14T08:27:56;15.10;;;10.20;;
3131;SDS011;62090;52.330;9.104;2024-02-14T08:30:26;16.00;;;12.00;;
3131;SDS011;62090;52.330;9.104;2024-02-14T08:33:00;18.53;;;12.47;;
3131;SDS011;62090;52.330;9.104;2024-02-14T08:35:30;14.80;;;11.73;;
3131;SDS011;62090;52.330;9.104;2024-02-14T08:38:08;15.37;;;12.23;;
3131;SDS011;62090;52.330;9.104;2024-02-14T08:40:38;17.77;;;13.93;;
3131;SDS011;62090;52.330;9.104;2024-02-14T08:43:09;16.00;;;12.60;;
3131;SDS011;62090;52.330;9.104;2024-02-14T08:45:39;14.80;;;12.07;;
3131;SDS011;62090;52.330;9.104;2024-02-14T08:48:11;24.00;;;13.23;;
3131;SDS011;62090;52.330;9.104;2024-02-14T08:50:42;17.73;;;14.47;;
3131;SDS011;62090;52.330;9.104;2024-02-14T08:53:13;23.53;;;13.90;;
3131;SDS011;62090;52.330;9.104;2024-02-14T08:55:43;19.53;;;14.10;;
3131;SDS011;62090;52.330;9.104;2024-02-14T08:58:13;17.40;;;13.97;;
3131;SDS011;62090;52.330;9.104;2024-02-14T09:00:44;22.37;;;15.60;;
3131;SDS011;62090;52.330;9.104;2024-02-14T09:03:17;19.60;;;15.37;;
3131;SDS011;62090;52.330;9.104;2024-02-14T09:05:48;20.60;;;15.07;;
3131;SDS011;62090;52.330;9.104;2024-02-14T09:08:19;17.27;;;14.20;;
3131;SDS011;62090;52.330;9.104;2024-02-14T09:10:51;17.27;;;14.27;;
3131;SDS011;62090;52.330;9.104;2024-02-14T09:13:21;21.53;;;14.87;;
3131;SDS011;62090;52.330;9.104;2024-02-14T09:15:52;17.63;;;14.30;;
3131;SDS011;62090;52.330;9.104;2024-02-14T09:18:24;23.80;;;15.20;;
3131;SDS011;62090;52.330;9.104;2024-02-14T09:20:55;17.63;;;13.90;;
3131;SDS011;62090;52.330;9.104;2024-02-14T09:23:25;22.03;;;15.80;;
3131;SDS011;62090;52.330;9.104;2024-02-14T09:25:56;18.80;;;14.90;;
3131;SDS011;62090;52.330;9.104;2024-02-14T09:28:26;24.73;;;16.17;;
3131;SDS011;62090;52.330;9.104;2024-02-14T09:30:56;23.50;;;14.83;;
3131;SDS011;62090;52.330;9.104;2024-02-14T09:33:28;18.80;;;13.70;;
3131;SDS011;62090;52.330;9.104;2024-02-14T09:35:59;22.77;;;14.93;;
3131;SDS011;62090;52.330;9.104;2024-02-14T09:38:29;17.30;;;13.73;;
3131;SDS011;62090;52.330;9.104;2024-02-14T09:41:01;16.27;;;13.60;;
3131;SDS011;62090;52.330;9.104;2024-02-14T09:43:36;18.70;;;13.90;;
3131;SDS011;62090;52.330;9.104;2024-02-14T09:46:09;17.30;;;13.63;;
3131;SDS011;62090;52.330;9.104;2024-02-14T09:48:46;16.50;;;14.03;;
3131;SDS011;62090;52.330;9.104;2024-02-14T09:51:16;23.77;;;14.30;;
3131;SDS011;62090;52.330;9.104;2024-02-14T09:53:47;18.13;;;12.30;;
3131;SDS011;62090;52.330;9.104;2024-02-14T09:56:20;18.40;;;13.77;;
3131;SDS011;62090;52.330;9.104;2024-02-14T09:58:51;17.40;;;14.07;;
3131;SDS011;62090;52.330;9.104;2024-02-14T10:01:27;19.83;;;13.57;;
3131;SDS011;62090;52.330;9.104;2024-02-14T10:04:00;16.93;;;12.80;;
3131;SDS011;62090;52.330;9.104;2024-02-14T10:06:30;18.23;;;13.07;;
3131;SDS011;62090;52.330;9.104;2024-02-14T10:09:00;15.90;;;12.40;;
3131;SDS011;62090;52.330;9.104;2024-02-14T10:11:35;16.00;;;12.67;;
3131;SDS011;62090;52.330;9.104;2024-02-14T10:14:07;13.57;;;10.70;;
3131;SDS011;62090;52.330;9.104;2024-02-14T10:16:39;16.23;;;11.70;;
3131;SDS011;62090;52.330;9.104;2024-02-14T10:19:19;15.67;;;12.27;;
3131;SDS011;62090;52.330;9.104;2024-02-14T10:21:55;21.43;;;10.90;;
3131;SDS011;62090;52.330;9.104;2024-02-14T10:24:27;14.20;;;10.90;;
3131;SDS011;62090;52.330;9.104;2024-02-14T10:26:58;17.30;;;11.27;;
3131;SDS011;62090;52.330;9.104;2024-02-14T10:29:28;11.77;;;10.37;;
3131;SDS011;62090;52.330;9.104;2024-02-14T10:31:59;14.10;;;11.17;;
3131;SDS011;62090;52.330;9.104;2024-02-14T10:34:31;11.33;;;9.70;;
3131;SDS011;62090;52.330;9.104;2024-02-14T10:37:03;14.33;;;10.77;;
3131;SDS011;62090;52.330;9.104;2024-02-14T10:39:36;14.80;;;10.07;;
3131;SDS011;62090;52.330;9.104;2024-02-14T10:42:08;12.13;;;10.70;;
3131;SDS011;62090;52.330;9.104;2024-02-14T10:44:38;11.60;;;10.40;;
3131;SDS011;62090;52.330;9.104;2024-02-14T10:47:09;13.23;;;10.47;;
3131;SDS011;62090;52.330;9.104;2024-02-14T10:49:47;15.43;;;11.57;;
3131;SDS011;62090;52.330;9.104;2024-02-14T10:52:19;12.93;;;10.13;;
3131;SDS011;62090;52.330;9.104;2024-02-14T10:54:52;13.47;;;10.93;;
3131;SDS011;62090;52.330;9.104;2024-02-14T10:57:26;13.50;;;11.57;;
3131;SDS011;62090;52.330;9.104;2024-02-14T11:00:00;15.10;;;11.57;;
3131;SDS011;62090;52.330;9.104;2024-02-14T11:02:34;13.47;;;11.23;;
3131;SDS011;62090;52.330;9.104;2024-02-14T11:05:13;16.37;;;13.03;;
3131;SDS011;62090;52.330;9.104;2024-02-14T11:07:44;12.60;;;10.87;;
3131;SDS011;62090;52.330;9.104;2024-02-14T11:10:16;15.60;;;11.10;;
3131;SDS011;62090;52.330;9.104;2024-02-14T11:12:47;13.10;;;11.00;;
3131;SDS011;62090;52.330;9.104;2024-02-14T11:15:19;13.17;;;11.70;;
3131;SDS011;62090;52.330;9.104;2024-02-14T11:17:51;13.00;;;10.83;;
3131;SDS011;62090;52.330;9.104;2024-02-14T11:20:37;14.80;;;11.77;;
3131;SDS011;62090;52.330;9.104;2024-02-14T11:23:09;14.40;;;11.70;;
3131;SDS011;62090;52.330;9.104;2024-02-14T11:25:40;15.20;;;12.23;;
3131;SDS011;62090;52.330;9.104;2024-02-14T11:28:15;17.83;;;12.73;;
3131;SDS011;62090;52.330;9.104;2024-02-14T11:30:46;15.83;;;12.80;;
3131;SDS011;62090;52.330;9.104;2024-02-14T11:33:17;18.33;;;14.00;;
3131;SDS011;62090;52.330;9.104;2024-02-14T11:35:51;16.60;;;13.00;;
3131;SDS011;62090;52.330;9.104;2024-02-14T11:38:24;16.03;;;13.37;;
3131;SDS011;62090;52.330;9.104;2024-02-14T11:40:57;18.13;;;13.63;;
3131;SDS011;62090;52.330;9.104;2024-02-14T11:43:27;17.80;;;13.77;;
3131;SDS011;62090;52.330;9.104;2024-02-14T11:45:57;18.60;;;14.17;;
3131;SDS011;62090;52.330;9.104;2024-02-14T11:48:27;16.30;;;13.90;;
3131;SDS011;62090;52.330;9.104;2024-02-14T11:51:02;17.60;;;13.80;;
3131;SDS011;62090;52.330;9.104;2024-02-14T11:53:35;23.07;;;15.30;;
3131;SDS011;62090;52.330;9.104;2024-02-14T11:56:06;16.00;;;14.20;;
3131;SDS011;62090;52.330;9.104;2024-02-14T11:58:36;17.03;;;13.77;;
3131;SDS011;62090;52.330;9.104;2024-02-14T12:01:06;17.80;;;13.80;;
3131;SDS011;62090;52.330;9.104;2024-02-14T12:03:36;19.23;;;14.87;;
3131;SDS011;62090;52.330;9.104;2024-02-14T12:06:10;19.23;;;13.70;;
3131;SDS011;62090;52.330;9.104;2024-02-14T12:08:57;17.67;;;14.20;;
3131;SDS011;62090;52.330;9.104;2024-02-14T12:11:34;14.80;;;13.00;;
3131;SDS011;62090;52.330;9.104;2024-02-14T12:14:06;18.33;;;13.43;;
3131;SDS011;62090;52.330;9.104;2024-02-14T12:16:37;14.63;;;12.83;;
3131;SDS011;62090;52.330;9.104;2024-02-14T12:19:09;15.60;;;13.40;;
3131;SDS011;62090;52.330;9.104;2024-02-14T12:21:46;19.70;;;12.40;;
3131;SDS011;62090;52.330;9.104;2024-02-14T12:24:17;16.90;;;13.00;;
3131;SDS011;62090;52.330;9.104;2024-02-14T12:26:47;19.17;;;14.63;;
3131;SDS011;62090;52.330;9.104;2024-02-14T12:29:19;16.73;;;13.20;;
3131;SDS011;62090;52.330;9.104;2024-02-14T12:31:49;15.87;;;12.40;;
3131;SDS011;62090;52.330;9.104;2024-02-14T12:34:19;25.90;;;12.87;;
3131;SDS011;62090;52.330;9.104;2024-02-14T12:36:54;13.50;;;11.77;;
3131;SDS011;62090;52.330;9.104;2024-02-14T12:39:24;13.33;;;11.43;;
3131;SDS011;62090;52.330;9.104;2024-02-14T12:41:55;13.57;;;12.17;;
3131;SDS011;62090;52.330;9.104;2024-02-14T12:44:27;15.80;;;10.47;;
3131;SDS011;62090;52.330;9.104;2024-02-14T12:46:57;12.73;;;11.43;;
3131;SDS011;62090;52.330;9.104;2024-02-14T12:49:27;13.77;;;11.43;;
3131;SDS011;62090;52.330;9.104;2024-02-14T12:52:01;12.17;;;10.67;;
3131;SDS011;62090;52.330;9.104;2024-02-14T12:54:31;15.73;;;11.60;;
3131;SDS011;62090;52.330;9.104;2024-02-14T12:57:02;13.43;;;10.70;;
3131;SDS011;62090;52.330;9.104;2024-02-14T12:59:32;11.07;;;9.97;;
3131;SDS011;62090;52.330;9.104;2024-02-14T13:02:02;10.60;;;9.40;;
3131;SDS011;62090;52.330;9.104;2024-02-14T13:04:33;14.20;;;10.40;;
3131;SDS011;62090;52.330;9.104;2024-02-14T13:07:06;13.33;;;10.47;;
3131;SDS011;62090;52.330;9.104;2024-02-14T13:09:36;13.17;;;9.90;;
3131;SDS011;62090;52.330;9.104;2024-02-14T13:12:07;12.50;;;9.87;;
3131;SDS011;62090;52.330;9.104;2024-02-14T13:14:37;32.03;;;10.47;;
3131;SDS011;62090;52.330;9.104;2024-02-14T13:17:09;11.70;;;9.40;;
3131;SDS011;62090;52.330;9.104;2024-02-14T13:19:39;11.27;;;8.40;;
3131;SDS011;62090;52.330;9.104;2024-02-14T13:22:12;10.83;;;8.90;;
3131;SDS011;62090;52.330;9.104;2024-02-14T13:24:42;10.40;;;8.10;;
3131;SDS011;62090;52.330;9.104;2024-02-14T13:27:12;8.40;;;7.30;;
3131;SDS011;62090;52.330;9.104;2024-02-14T13:29:43;9.70;;;6.80;;
3131;SDS011;62090;52.330;9.104;2024-02-14T13:32:13;7.43;;;6.70;;
3131;SDS011;62090;52.330;9.104;2024-02-14T13:34:43;9.30;;;6.73;;
3131;SDS011;62090;52.330;9.104;2024-02-14T13:37:17;11.60;;;6.40;;
3131;SDS011;62090;52.330;9.104;2024-02-14T13:39:47;11.10;;;5.93;;
3131;SDS011;62090;52.330;9.104;2024-02-14T13:42:18;8.53;;;6.23;;
3131;SDS011;62090;52.330;9.104;2024-02-14T13:44:49;7.40;;;5.90;;
3131;SDS011;62090;52.330;9.104;2024-02-14T13:47:21;6.23;;;5.63;;
3131;SDS011;62090;52.330;9.104;2024-02-14T13:49:51;5.80;;;4.90;;
3131;SDS011;62090;52.330;9.104;2024-02-14T13:52:24;5.23;;;4.73;;
3131;SDS011;62090;52.330;9.104;2024-02-14T13:54:54;6.80;;;5.10;;
3131;SDS011;62090;52.330;9.104;2024-02-14T13:57:27;7.53;;;4.50;;
3131;SDS011;62090;52.330;9.104;2024-02-14T13:59:57;7.23;;;4.93;;
3131;SDS011;62090;52.330;9.104;2024-02-14T14:02:29;12.53;;;5.70;;
3131;SDS011;62090;52.330;9.104;2024-02-14T14:04:59;8.03;;;6.13;;
3131;SDS011;62090;52.330;9.104;2024-02-14T14:07:33;6.13;;;5.30;;
3131;SDS011;62090;52.330;9.104;2024-02-14T14:10:19;6.30;;;5.20;;
3131;SDS011;62090;52.330;9.104;2024-02-14T14:12:52;7.13;;;6.43;;
3131;SDS011;62090;52.330;9.104;2024-02-14T14:15:22;7.27;;;5.60;;
3131;SDS011;62090;52.330;9.104;2024-02-14T14:17:53;7.97;;;5.80;;
3131;SDS011;62090;52.330;9.104;2024-02-14T14:20:24;9.13;;;6.40;;
3131;SDS011;62090;52.330;9.104;2024-02-14T14:22:57;6.67;;;5.70;;
3131;SDS011;62090;52.330;9.104;2024-02-14T14:25:29;8.47;;;6.43;;
3131;SDS011;62090;52.330;9.104;2024-02-14T14:28:00;9.00;;;5.97;;
3131;SDS011;62090;52.330;9.104;2024-02-14T14:30:32;6.73;;;6.03;;
3131;SDS011;62090;52.330;9.104;2024-02-14T14:33:03;8.60;;;6.63;;
3131;SDS011;62090;52.330;9.104;2024-02-14T14:35:35;8.47;;;6.43;;
3131;SDS011;62090;52.330;9.104;2024-02-14T14:38:12;13.80;;;6.70;;
3131;SDS011;62090;52.330;9.104;2024-02-14T14:40:45;13.57;;;9.20;;
3131;SDS011;62090;52.330;9.104;2024-02-14T14:43:17;10.03;;;8.03;;
3131;SDS011;62090;52.330;9.104;2024-02-14T14:45:48;11.27;;;8.50;;
3131;SDS011;62090;52.330;9.104;2024-02-14T14:48:20;12.90;;;8.90;;
3131;SDS011;62090;52.330;9.104;2024-02-14T14:50:50;11.00;;;8.50;;
3131;SDS011;62090;52.330;9.104;2024-02-14T14:53:23;14.63;;;9.57;;
3131;SDS011;62090;52.330;9.104;2024-02-14T14:55:54;11.30;;;8.83;;
3131;SDS011;62090;52.330;9.104;2024-02-14T14:58:27;16.73;;;9.57;;
3131;SDS011;62090;52.330;9.104;2024-02-14T15:01:00;12.77;;;10.00;;
3131;SDS011;62090;52.330;9.104;2024-02-14T15:03:31;19.73;;;10.10;;
3131;SDS011;62090;52.330;9.104;2024-02-14T15:06:01;18.37;;;11.00;;
3131;SDS011;62090;52.330;9.104;2024-02-14T15:08:34;19.20;;;10.67;;
3131;SDS011;62090;52.330;9.104;2024-02-14T15:11:04;15.27;;;10.73;;
3131;SDS011;62090;52.330;9.104;2024-02-14T15:13:34;12.40;;;11.10;;
3131;SDS011;62090;52.330;9.104;2024-02-14T15:16:05;13.50;;;10.40;;
3131;SDS011;62090;52.330;9.104;2024-02-14T15:18:36;17.00;;;10.50;;
3131;SDS011;62090;52.330;9.104;2024-02-14T15:21:06;23.77;;;11.67;;
3131;SDS011;62090;52.330;9.104;2024-02-14T15:23:42;15.23;;;10.80;;